Time,TemperatureF,DewpointF,PressureIn,WindDirection,WindDirectionDegrees,WindSpeedMPH,WindSpeedGustMPH,Humidity,HourlyPrecipIn,Conditions,Clouds,dailyrainin,SolarRadiationWatts/m^2,SoftwareType,DateUTC
2013-01-15 00:22:00,32.0,15.0,-100.00,SE,128,2.0,4.0,50,0.00,,,0.00,0.000000,,2013-01-15 08:22:00,
2013-01-15 00:32:00,32.0,15.0,-100.00,SE,128,2.0,4.0,50,0.00,,,0.00,0.000000,,2013-01-15 08:32:00,
2013-01-15 00:42:00,32.0,15.0,-100.00,SE,128,2.0,4.0,50,0.00,,,0.00,0.000000,,2013-01-15 08:42:00,
2013-01-15 00:52:00,32.0,15.0,-100.00,SE,128,2.0,4.0,50,0.00,,,0.00,0.000000,,2013-01-15 08:52:00,
2013-01-15 01:22:00,32.0,14.0,-100.00,NNW,346,1.0,3.0,47,0.00,,,0.00,0.000000,,2013-01-15 09:22:00,
2013-01-15 01:33:00,32.0,14.0,-100.00,NNW,346,1.0,3.0,47,0.00,,,0.00,0.000000,,2013-01-15 09:33:00,
2013-01-15 01:42:00,32.0,14.0,-100.00,NNW,346,1.0,3.0,47,0.00,,,0.00,0.000000,,2013-01-15 09:42:00,
2013-01-15 01:52:00,32.0,14.0,-100.00,NNW,346,1.0,3.0,47,0.00,,,0.00,0.000000,,2013-01-15 09:52:00,
2013-01-15 02:11:00,32.0,15.0,-100.00,NNE,17,2.0,4.0,48,0.00,,,0.00,0.000000,,2013-01-15 10:11:00,
2013-01-15 02:22:00,32.0,15.0,-100.00,NNE,17,2.0,4.0,48,0.00,,,0.00,0.000000,,2013-01-15 10:22:00,
2013-01-15 02:32:00,32.0,15.0,-100.00,NNE,17,2.0,4.0,48,0.00,,,0.00,0.000000,,2013-01-15 10:32:00,
2013-01-15 02:42:00,32.0,15.0,-100.00,NNE,17,2.0,4.0,48,0.00,,,0.00,0.000000,,2013-01-15 10:42:00,
2013-01-15 02:52:00,32.0,15.0,-100.00,NNE,17,2.0,4.0,48,0.00,,,0.00,0.000000,,2013-01-15 10:52:00,
2013-01-15 03:12:00,30.0,15.0,-100.00,SSE,155,2.0,4.0,52,0.00,,,0.00,0.000000,,2013-01-15 11:12:00,
2013-01-15 03:22:00,30.0,15.0,-100.00,SSE,155,2.0,4.0,52,0.00,,,0.00,0.000000,,2013-01-15 11:22:00,
2013-01-15 03:32:00,30.0,15.0,-100.00,SSE,155,2.0,4.0,52,0.00,,,0.00,0.000000,,2013-01-15 11:32:00,
2013-01-15 03:42:00,30.0,15.0,-100.00,SSE,155,2.0,4.0,52,0.00,,,0.00,0.000000,,2013-01-15 11:42:00,
2013-01-15 03:52:00,30.0,15.0,-100.00,SSE,155,2.0,4.0,52,0.00,,,0.00,0.000000,,2013-01-15 11:52:00,
2013-01-15 04:12:00,31.0,14.0,-100.00,NNE,19,2.0,3.0,48,0.00,,,0.00,0.000000,,2013-01-15 12:12:00,
2013-01-15 04:22:00,31.0,14.0,-100.00,NNE,19,2.0,3.0,48,0.00,,,0.00,0.000000,,2013-01-15 12:22:00,
2013-01-15 04:32:00,31.0,14.0,-100.00,NNE,19,2.0,3.0,48,0.00,,,0.00,0.000000,,2013-01-15 12:32:00,
2013-01-15 04:42:00,31.0,14.0,-100.00,NNE,19,2.0,3.0,48,0.00,,,0.00,0.000000,,2013-01-15 12:42:00,
2013-01-15 04:52:00,31.0,14.0,-100.00,NNE,19,2.0,3.0,48,0.00,,,0.00,0.000000,,2013-01-15 12:52:00,
2013-01-15 05:23:00,30.0,17.0,-100.00,East,100,1.0,4.0,59,0.00,,,0.00,0.000000,,2013-01-15 13:23:00,
2013-01-15 05:33:00,30.0,17.0,-100.00,East,100,1.0,4.0,59,0.00,,,0.00,0.000000,,2013-01-15 13:33:00,
2013-01-15 05:42:00,30.0,17.0,-100.00,East,100,1.0,4.0,59,0.00,,,0.00,0.000000,,2013-01-15 13:42:00,
2013-01-15 05:53:00,30.0,17.0,-100.00,East,100,1.0,4.0,59,0.00,,,0.00,0.000000,,2013-01-15 13:53:00,
2013-01-15 06:12:00,28.0,16.0,-100.00,SE,125,2.0,4.0,61,0.00,,,0.00,0.000000,,2013-01-15 14:12:00,
2013-01-15 06:23:00,28.0,16.0,-100.00,SE,125,2.0,4.0,61,0.00,,,0.00,0.000000,,2013-01-15 14:23:00,
2013-01-15 06:33:00,28.0,16.0,-100.00,SE,125,2.0,4.0,61,0.00,,,0.00,0.000000,,2013-01-15 14:33:00,
2013-01-15 06:42:00,28.0,16.0,-100.00,SE,125,2.0,4.0,61,0.00,,,0.00,0.000000,,2013-01-15 14:42:00,
2013-01-15 06:53:00,28.0,16.0,-100.00,SE,125,2.0,4.0,61,0.00,,,0.00,0.000000,,2013-01-15 14:53:00,
2013-01-15 07:12:00,27.0,15.0,-100.00,SE,130,2.0,4.0,61,0.00,,,0.00,0.000000,,2013-01-15 15:12:00,
2013-01-15 07:23:00,27.0,15.0,-100.00,SE,130,2.0,4.0,61,0.00,,,0.00,0.000000,,2013-01-15 15:23:00,
2013-01-15 07:33:00,27.0,15.0,-100.00,SE,130,2.0,4.0,61,0.00,,,0.00,0.000000,,2013-01-15 15:33:00,
2013-01-15 07:43:00,27.0,15.0,-100.00,SE,130,2.0,4.0,61,0.00,,,0.00,0.000000,,2013-01-15 15:43:00,
2013-01-15 07:52:00,27.0,15.0,-100.00,SE,130,2.0,4.0,61,0.00,,,0.00,0.000000,,2013-01-15 15:52:00,
2013-01-15 08:22:00,28.0,17.0,-100.00,WNW,293,2.0,3.0,62,0.00,,,0.00,7.000000,,2013-01-15 16:22:00,
2013-01-15 08:33:00,28.0,17.0,-100.00,WNW,293,2.0,3.0,62,0.00,,,0.00,7.000000,,2013-01-15 16:33:00,
2013-01-15 08:42:00,28.0,17.0,-100.00,WNW,293,2.0,3.0,62,0.00,,,0.00,7.000000,,2013-01-15 16:42:00,
2013-01-15 08:53:00,28.0,17.0,-100.00,WNW,293,2.0,3.0,62,0.00,,,0.00,7.000000,,2013-01-15 16:53:00,
2013-01-15 09:12:00,36.0,21.0,-100.00,SE,143,2.0,3.0,55,0.00,,,0.00,20.000000,,2013-01-15 17:12:00,
2013-01-15 09:22:00,36.0,21.0,-100.00,SE,143,2.0,3.0,55,0.00,,,0.00,20.000000,,2013-01-15 17:22:00,
2013-01-15 09:33:00,36.0,21.0,-100.00,SE,143,2.0,3.0,55,0.00,,,0.00,20.000000,,2013-01-15 17:33:00,
2013-01-15 09:42:00,36.0,21.0,-100.00,SE,143,2.0,3.0,55,0.00,,,0.00,20.000000,,2013-01-15 17:42:00,
2013-01-15 09:53:00,36.0,21.0,-100.00,SE,143,2.0,3.0,55,0.00,,,0.00,20.000000,,2013-01-15 17:53:00,
2013-01-15 10:12:00,44.0,22.0,-100.00,West,263,2.0,4.0,41,0.00,,,0.00,84.000000,,2013-01-15 18:12:00,
2013-01-15 10:23:00,44.0,22.0,-100.00,West,263,2.0,4.0,41,0.00,,,0.00,84.000000,,2013-01-15 18:23:00,
2013-01-15 10:33:00,44.0,22.0,-100.00,West,263,2.0,4.0,41,0.00,,,0.00,84.000000,,2013-01-15 18:33:00,
2013-01-15 10:42:00,44.0,22.0,-100.00,West,263,2.0,4.0,41,0.00,,,0.00,84.000000,,2013-01-15 18:42:00,
2013-01-15 10:52:00,44.0,22.0,-100.00,West,263,2.0,4.0,41,0.00,,,0.00,84.000000,,2013-01-15 18:52:00,
2013-01-15 11:12:00,52.0,22.0,-100.00,South,182,3.0,5.0,30,0.00,,,0.00,369.000000,,2013-01-15 19:12:00,
2013-01-15 11:22:00,52.0,22.0,-100.00,South,182,3.0,5.0,30,0.00,,,0.00,369.000000,,2013-01-15 19:22:00,
2013-01-15 11:42:00,52.0,22.0,-100.00,South,182,3.0,5.0,30,0.00,,,0.00,369.000000,,2013-01-15 19:42:00,
2013-01-15 11:52:00,52.0,22.0,-100.00,South,182,3.0,5.0,30,0.00,,,0.00,369.000000,,2013-01-15 19:52:00,
2013-01-15 12:23:00,56.0,23.0,-100.00,WNW,294,3.0,7.0,27,0.00,,,0.00,466.000000,,2013-01-15 20:23:00,
2013-01-15 12:33:00,56.0,23.0,-100.00,WNW,294,3.0,7.0,27,0.00,,,0.00,466.000000,,2013-01-15 20:33:00,
2013-01-15 12:43:00,56.0,23.0,-100.00,WNW,294,3.0,7.0,27,0.00,,,0.00,466.000000,,2013-01-15 20:43:00,
2013-01-15 12:52:00,56.0,23.0,-100.00,WNW,294,3.0,7.0,27,0.00,,,0.00,466.000000,,2013-01-15 20:52:00,
2013-01-15 13:12:00,60.0,20.0,-100.00,South,190,5.0,8.0,21,0.00,,,0.00,500.000000,,2013-01-15 21:12:00,
2013-01-15 13:22:00,60.0,20.0,-100.00,South,190,5.0,8.0,21,0.00,,,0.00,500.000000,,2013-01-15 21:22:00,
2013-01-15 13:33:00,60.0,20.0,-100.00,South,190,5.0,8.0,21,0.00,,,0.00,500.000000,,2013-01-15 21:33:00,
2013-01-15 13:42:00,60.0,20.0,-100.00,South,190,5.0,8.0,21,0.00,,,0.00,500.000000,,2013-01-15 21:42:00,
2013-01-15 13:52:00,60.0,20.0,-100.00,South,190,5.0,8.0,21,0.00,,,0.00,500.000000,,2013-01-15 21:52:00,
2013-01-15 14:12:00,60.0,20.0,-100.00,West,270,5.0,7.0,21,0.00,,,0.00,477.000000,,2013-01-15 22:12:00,
2013-01-15 14:22:00,60.0,20.0,-100.00,West,270,5.0,7.0,21,0.00,,,0.00,477.000000,,2013-01-15 22:22:00,
2013-01-15 14:32:00,60.0,20.0,-100.00,West,270,5.0,7.0,21,0.00,,,0.00,477.000000,,2013-01-15 22:32:00,
2013-01-15 14:42:00,60.0,20.0,-100.00,West,270,5.0,7.0,21,0.00,,,0.00,477.000000,,2013-01-15 22:42:00,
2013-01-15 14:52:00,60.0,20.0,-100.00,West,270,5.0,7.0,21,0.00,,,0.00,477.000000,,2013-01-15 22:52:00,
2013-01-15 15:12:00,59.0,27.0,-100.00,West,280,5.0,12.0,29,0.00,,,0.00,401.000000,,2013-01-15 23:12:00,
2013-01-15 15:22:00,59.0,27.0,-100.00,West,280,5.0,12.0,29,0.00,,,0.00,401.000000,,2013-01-15 23:22:00,
2013-01-15 15:32:00,59.0,27.0,-100.00,West,280,5.0,12.0,29,0.00,,,0.00,401.000000,,2013-01-15 23:32:00,
2013-01-15 15:42:00,59.0,27.0,-100.00,West,280,5.0,12.0,29,0.00,,,0.00,401.000000,,2013-01-15 23:42:00,
2013-01-15 15:52:00,59.0,27.0,-100.00,West,280,5.0,12.0,29,0.00,,,0.00,401.000000,,2013-01-15 23:52:00,
2013-01-15 16:22:00,57.0,26.0,-100.00,West,275,4.0,6.0,30,0.00,,,0.00,273.000000,,2013-01-16 00:22:00,
2013-01-15 16:32:00,57.0,26.0,-100.00,West,275,4.0,6.0,30,0.00,,,0.00,273.000000,,2013-01-16 00:32:00,
2013-01-15 16:42:00,57.0,26.0,-100.00,West,275,4.0,6.0,30,0.00,,,0.00,273.000000,,2013-01-16 00:42:00,
2013-01-15 16:52:00,57.0,26.0,-100.00,West,275,4.0,6.0,30,0.00,,,0.00,273.000000,,2013-01-16 00:52:00,
2013-01-15 17:12:00,50.0,24.0,-100.00,NW,324,5.0,8.0,36,0.00,,,0.00,99.000000,,2013-01-16 01:12:00,
2013-01-15 17:22:00,50.0,24.0,-100.00,NW,324,5.0,8.0,36,0.00,,,0.00,99.000000,,2013-01-16 01:22:00,
2013-01-15 17:33:00,50.0,24.0,-100.00,NW,324,5.0,8.0,36,0.00,,,0.00,99.000000,,2013-01-16 01:33:00,
2013-01-15 17:42:00,50.0,24.0,-100.00,NW,324,5.0,8.0,36,0.00,,,0.00,99.000000,,2013-01-16 01:42:00,
2013-01-15 17:52:00,50.0,24.0,-100.00,NW,324,5.0,8.0,36,0.00,,,0.00,99.000000,,2013-01-16 01:52:00,
2013-01-15 18:22:00,43.0,28.0,-100.00,North,352,1.0,5.0,55,0.00,,,0.00,3.000000,,2013-01-16 02:22:00,
2013-01-15 18:32:00,43.0,28.0,-100.00,North,352,1.0,5.0,55,0.00,,,0.00,3.000000,,2013-01-16 02:32:00,
2013-01-15 18:42:00,43.0,28.0,-100.00,North,352,1.0,5.0,55,0.00,,,0.00,3.000000,,2013-01-16 02:42:00,
2013-01-15 18:52:00,43.0,28.0,-100.00,North,352,1.0,5.0,55,0.00,,,0.00,3.000000,,2013-01-16 02:52:00,
2013-01-15 19:12:00,38.0,27.0,-100.00,East,101,2.0,4.0,63,0.00,,,0.00,0.000000,,2013-01-16 03:12:00,
2013-01-15 19:22:00,38.0,27.0,-100.00,East,101,2.0,4.0,63,0.00,,,0.00,0.000000,,2013-01-16 03:22:00,
2013-01-15 19:32:00,38.0,27.0,-100.00,East,101,2.0,4.0,63,0.00,,,0.00,0.000000,,2013-01-16 03:32:00,
2013-01-15 19:42:00,38.0,27.0,-100.00,East,101,2.0,4.0,63,0.00,,,0.00,0.000000,,2013-01-16 03:42:00,
2013-01-15 19:52:00,38.0,27.0,-100.00,East,101,2.0,4.0,63,0.00,,,0.00,0.000000,,2013-01-16 03:52:00,
2013-01-15 20:12:00,37.0,27.0,-100.00,ESE,114,1.0,3.0,68,0.00,,,0.00,0.000000,,2013-01-16 04:12:00,
2013-01-15 20:22:00,37.0,27.0,-100.00,ESE,114,1.0,3.0,68,0.00,,,0.00,0.000000,,2013-01-16 04:22:00,
2013-01-15 20:32:00,37.0,27.0,-100.00,ESE,114,1.0,3.0,68,0.00,,,0.00,0.000000,,2013-01-16 04:32:00,
2013-01-15 20:42:00,37.0,27.0,-100.00,ESE,114,1.0,3.0,68,0.00,,,0.00,0.000000,,2013-01-16 04:42:00,
2013-01-15 20:52:00,37.0,27.0,-100.00,ESE,114,1.0,3.0,68,0.00,,,0.00,0.000000,,2013-01-16 04:52:00,
2013-01-15 21:12:00,36.0,29.0,-100.00,WNW,297,1.0,3.0,75,0.00,,,0.00,0.000000,,2013-01-16 05:12:00,
2013-01-15 21:22:00,36.0,29.0,-100.00,WNW,297,1.0,3.0,75,0.00,,,0.00,0.000000,,2013-01-16 05:22:00,
2013-01-15 21:32:00,36.0,29.0,-100.00,WNW,297,1.0,3.0,75,0.00,,,0.00,0.000000,,2013-01-16 05:32:00,
2013-01-15 21:42:00,36.0,29.0,-100.00,WNW,297,1.0,3.0,75,0.00,,,0.00,0.000000,,2013-01-16 05:42:00,
2013-01-15 21:52:00,36.0,29.0,-100.00,WNW,297,1.0,3.0,75,0.00,,,0.00,0.000000,,2013-01-16 05:52:00,
2013-01-15 22:22:00,34.0,27.0,-100.00,SE,124,2.0,4.0,75,0.00,,,0.00,0.000000,,2013-01-16 06:22:00,
2013-01-15 22:32:00,34.0,27.0,-100.00,SE,124,2.0,4.0,75,0.00,,,0.00,0.000000,,2013-01-16 06:32:00,
2013-01-15 22:42:00,34.0,27.0,-100.00,SE,124,2.0,4.0,75,0.00,,,0.00,0.000000,,2013-01-16 06:42:00,
2013-01-15 22:52:00,34.0,27.0,-100.00,SE,124,2.0,4.0,75,0.00,,,0.00,0.000000,,2013-01-16 06:52:00,
2013-01-15 23:12:00,36.0,27.0,-100.00,SE,125,1.0,3.0,70,0.00,,,0.00,0.000000,,2013-01-16 07:12:00,
2013-01-15 23:22:00,36.0,27.0,-100.00,SE,125,1.0,3.0,70,0.00,,,0.00,0.000000,,2013-01-16 07:22:00,
2013-01-15 23:32:00,36.0,27.0,-100.00,SE,125,1.0,3.0,70,0.00,,,0.00,0.000000,,2013-01-16 07:32:00,
2013-01-15 23:42:00,36.0,27.0,-100.00,SE,125,1.0,3.0,70,0.00,,,0.00,0.000000,,2013-01-16 07:42:00,
2013-01-15 23:52:00,36.0,27.0,-100.00,SE,125,1.0,3.0,70,0.00,,,0.00,0.000000,,2013-01-16 07:52:00,